Time;durP1;ratioP1;P1;durP2;ratioP2;P2;SDS_P1;SDS_P2;PMS_P1;PMS_P2;Temp;Humidity;BMP_temperature;BMP_pressure;BME280_temperature;BME280_humidity;BME280_pressure;Samples;Min_cycle;Max_cycle;Signal;HPM_P1;HPM_P2
2023/06/26 00:00:51;;;;;;;191.32;175.63;;;;;;;20.28;100.00;100731.13;5061704;28;20045;-82
2023/06/26 00:03:18;;;;;;;139.20;125.18;;;;;;;20.21;100.00;100728.72;5068633;28;20055;-82
2023/06/26 00:05:44;;;;;;;157.95;143.65;;;;;;;20.28;100.00;100731.94;5060015;28;20251;-83
2023/06/26 00:08:11;;;;;;;135.20;122.07;;;;;;;20.29;100.00;100717.38;5056169;28;20049;-82
2023/06/26 00:10:40;;;;;;;149.63;133.95;;;;;;;20.33;100.00;100723.03;5059846;28;20049;-83
2023/06/26 00:13:06;;;;;;;163.45;147.65;;;;;;;20.20;100.00;100737.06;5063577;28;20051;-82
2023/06/26 00:15:33;;;;;;;153.73;138.45;;;;;;;20.08;100.00;100724.66;5052008;28;20049;-83
2023/06/26 00:18:00;;;;;;;156.77;141.52;;;;;;;20.15;100.00;100729.78;5052322;28;20049;-83
2023/06/26 00:20:27;;;;;;;173.95;157.60;;;;;;;20.10;100.00;100729.78;5051972;28;20045;-83
2023/06/26 00:22:55;;;;;;;149.60;135.27;;;;;;;20.17;100.00;100722.22;5052691;28;20049;-83
2023/06/26 00:25:22;;;;;;;146.05;130.00;;;;;;;20.22;100.00;100718.75;5052428;28;20045;-82
2023/06/26 00:27:50;;;;;;;148.95;134.10;;;;;;;20.28;100.00;100715.75;5052393;28;20535;-83
2023/06/26 00:30:19;;;;;;;149.95;135.70;;;;;;;20.24;100.00;100713.88;5052157;28;20045;-83
2023/06/26 00:32:54;;;;;;;154.35;140.02;;;;;;;20.51;100.00;100716.25;5052160;28;20052;-83
2023/06/26 00:35:22;;;;;;;157.02;141.85;;;;;;;20.46;100.00;100713.59;5054860;28;20049;-87
2023/06/26 00:37:49;;;;;;;151.32;136.25;;;;;;;20.31;100.00;100709.81;5052393;28;20051;-83
2023/06/26 00:40:16;;;;;;;159.82;144.10;;;;;;;20.42;100.00;100712.50;5052411;28;20052;-83
2023/06/26 00:42:43;;;;;;;128.95;116.13;;;;;;;20.34;100.00;100708.47;5064792;28;20502;-83
2023/06/26 00:45:12;;;;;;;141.90;128.23;;;;;;;20.43;100.00;100714.94;5067987;28;20051;-87
2023/06/26 00:47:39;;;;;;;147.30;133.13;;;;;;;20.28;100.00;100701.47;5072722;28;20064;-87
2023/06/26 00:50:07;;;;;;;145.75;132.43;;;;;;;20.22;100.00;100713.34;5071114;28;20048;-83
2023/06/26 00:52:34;;;;;;;136.65;124.10;;;;;;;20.40;100.00;100706.59;5051640;28;20085;-83
2023/06/26 00:55:07;;;;;;;142.05;127.95;;;;;;;20.20;100.00;100705.50;5052234;28;20080;-83
2023/06/26 00:57:41;;;;;;;152.25;137.93;;;;;;;20.43;100.00;100708.75;5062509;28;20052;-83
2023/06/26 01:00:16;;;;;;;144.52;130.93;;;;;;;20.51;100.00;100706.28;5057412;28;20036;-87
2023/06/26 01:03:15;;;;;;;134.77;121.65;;;;;;;20.33;100.00;100704.97;5065747;28;20049;-83
2023/06/26 01:05:45;;;;;;;130.85;117.72;;;;;;;20.43;100.00;100704.16;5024852;28;20041;-83
2023/06/26 01:08:13;;;;;;;129.25;117.53;;;;;;;20.32;100.00;100702.53;5025384;28;20061;-83
2023/06/26 01:10:41;;;;;;;141.15;128.38;;;;;;;20.25;100.00;100707.41;5010295;28;20532;-83
2023/06/26 01:13:09;;;;;;;137.30;123.70;;;;;;;20.23;100.00;100704.97;5010807;28;20050;-86
2023/06/26 01:15:49;;;;;;;126.78;115.28;;;;;;;20.27;100.00;100710.63;5010705;28;20052;-83
2023/06/26 01:18:16;;;;;;;144.07;131.38;;;;;;;20.43;100.00;100719.53;5048927;28;20056;-86
2023/06/26 01:20:45;;;;;;;148.70;135.18;;;;;;;20.53;100.00;100714.16;5051136;28;20048;-83
2023/06/26 01:23:19;;;;;;;134.18;121.35;;;;;;;20.45;100.00;100720.06;5055759;28;20505;-83
2023/06/26 01:26:20;;;;;;;144.13;131.32;;;;;;;20.36;100.00;100715.22;5055529;28;20440;-87
2023/06/26 01:28:59;;;;;;;128.95;117.57;;;;;;;20.43;100.00;100722.22;5051902;28;20060;-87
2023/06/26 01:31:28;;;;;;;124.65;113.15;;;;;;;20.37;100.00;100716.03;5052145;28;20041;-87
2023/06/26 01:34:05;;;;;;;148.30;136.07;;;;;;;20.34;100.00;100719.28;5052408;28;20578;-87
2023/06/26 01:36:32;;;;;;;129.90;118.15;;;;;;;20.32;100.00;100716.03;5066370;28;20054;-87
2023/06/26 01:38:59;;;;;;;128.07;116.40;;;;;;;20.24;100.00;100721.94;5072437;28;20424;-87
2023/06/26 01:41:28;;;;;;;133.85;122.25;;;;;;;20.36;100.00;100715.22;5067361;28;20135;-87
2023/06/26 01:44:18;;;;;;;110.10;99.95;;;;;;;20.29;100.00;100716.56;5071799;28;20053;-87
2023/06/26 01:46:59;;;;;;;110.63;99.93;;;;;;;20.00;100.00;100708.19;5057365;28;20156;-87
2023/06/26 01:49:43;;;;;;;122.85;111.43;;;;;;;20.35;100.00;100716.28;5072135;28;20052;-87
2023/06/26 01:52:22;;;;;;;125.90;114.03;;;;;;;19.79;100.00;100713.59;5072024;28;20044;-87
2023/06/26 01:54:56;;;;;;;129.55;117.55;;;;;;;20.01;100.00;100712.53;5062088;28;20049;-83
2023/06/26 01:57:28;;;;;;;137.20;124.35;;;;;;;20.12;100.00;100714.97;5050874;28;20052;-83
2023/06/26 01:59:57;;;;;;;148.63;135.67;;;;;;;19.98;100.00;100721.97;5061648;28;20048;-83
2023/06/26 02:02:30;;;;;;;147.93;135.38;;;;;;;20.14;100.00;100718.19;5062560;28;20049;-82
2023/06/26 02:05:13;;;;;;;155.50;142.35;;;;;;;20.09;100.00;100714.66;5065995;28;20126;-82
2023/06/26 02:07:39;;;;;;;;;;;;;;;20.25;100.00;100719.00;5059528;28;20048;-83
2023/06/26 02:10:33;;;;;;;157.80;144.25;;;;;;;20.32;100.00;100716.03;5058057;28;19921;-83
2023/06/26 02:13:01;;;;;;;157.02;143.25;;;;;;;20.20;100.00;100710.91;5050825;28;20056;-83
2023/06/26 02:15:28;;;;;;;151.75;138.52;;;;;;;20.22;100.00;100710.66;5055511;28;20059;-83
2023/06/26 02:17:55;;;;;;;159.98;145.13;;;;;;;20.05;100.00;100711.72;5054283;28;20056;-83
2023/06/26 02:20:22;;;;;;;176.20;160.50;;;;;;;20.10;100.00;100708.22;5050901;28;20045;-82
2023/06/26 02:22:52;;;;;;;164.00;149.27;;;;;;;20.22;100.00;100713.34;5050582;28;20053;-82
2023/06/26 02:25:19;;;;;;;166.13;151.82;;;;;;;20.19;100.00;100705.78;5050683;28;20049;-82
2023/06/26 02:27:46;;;;;;;155.48;141.63;;;;;;;20.14;100.00;100706.59;5069389;28;20531;-83
2023/06/26 02:30:15;;;;;;;154.30;140.38;;;;;;;20.16;100.00;100703.63;5066209;28;20441;-83
2023/06/26 02:32:42;;;;;;;147.60;133.45;;;;;;;20.12;100.00;100708.75;5054439;28;20518;-83
2023/06/26 02:35:09;;;;;;;137.52;124.55;;;;;;;20.14;100.00;100699.31;5054054;28;20061;-82
2023/06/26 02:37:36;;;;;;;148.98;135.38;;;;;;;20.17;100.00;100702.56;5062706;28;20048;-82
2023/06/26 02:40:07;;;;;;;121.28;109.47;;;;;;;20.20;100.00;100710.91;5064319;28;20581;-83
2023/06/26 02:42:35;;;;;;;108.50;96.97;;;;;;;19.49;100.00;100702.72;5059945;28;20051;-82
2023/06/26 02:45:02;;;;;;;113.00;100.95;;;;;;;19.48;100.00;100711.84;5062190;28;20041;-82
2023/06/26 02:47:30;;;;;;;102.63;90.85;;;;;;;19.84;100.00;100710.88;5060644;28;20048;-82
2023/06/26 02:49:57;;;;;;;100.50;89.47;;;;;;;19.78;100.00;100706.56;5055910;28;20049;-82
2023/06/26 02:52:26;;;;;;;96.20;86.35;;;;;;;20.13;100.00;100719.25;5072616;28;20480;-86
2023/06/26 02:54:53;;;;;;;97.45;87.05;;;;;;;20.14;100.00;100718.19;5056281;28;20053;-87
2023/06/26 02:57:19;;;;;;;92.93;83.00;;;;;;;20.09;100.00;100710.09;5054629;28;20574;-83
2023/06/26 02:59:47;;;;;;;98.38;88.00;;;;;;;20.10;100.00;100710.91;5053810;28;20049;-85
2023/06/26 03:02:14;;;;;;;87.47;78.43;;;;;;;20.20;100.00;100718.19;5058214;28;20076;-82
2023/06/26 03:04:42;;;;;;;87.07;78.13;;;;;;;20.13;100.00;100704.97;5063123;28;20528;-86
2023/06/26 03:07:10;;;;;;;95.82;86.20;;;;;;;20.16;100.00;100711.72;5058708;28;20048;-86
2023/06/26 03:09:45;;;;;;;98.88;88.70;;;;;;;19.89;100.00;100712.78;5062035;28;20048;-86
2023/06/26 03:12:12;;;;;;;100.78;90.72;;;;;;;19.98;100.00;100710.38;5067830;28;20128;-86
2023/06/26 03:14:39;;;;;;;111.45;99.97;;;;;;;20.17;100.00;100716.84;5054487;28;20133;-86
2023/06/26 03:17:07;;;;;;;92.70;83.03;;;;;;;19.99;100.00;100717.38;5063087;28;20064;-87
2023/06/26 03:19:36;;;;;;;110.03;99.20;;;;;;;19.85;100.00;100709.81;5058883;28;20106;-86
2023/06/26 03:22:05;;;;;;;98.68;87.90;;;;;;;19.83;100.00;100709.28;5058474;28;20436;-89
2023/06/26 03:24:33;;;;;;;95.68;83.68;;;;;;;20.03;100.00;100715.75;5065100;28;20087;-88
2023/06/26 03:27:02;;;;;;;90.93;78.60;;;;;;;20.02;100.00;100716.84;5064781;28;20073;-86
2023/06/26 03:29:30;;;;;;;93.75;84.00;;;;;;;19.97;100.00;100708.72;5054395;28;20055;-82
2023/06/26 03:31:57;;;;;;;99.75;89.40;;;;;;;19.84;100.00;100708.19;5056174;28;20123;-81
2023/06/26 03:34:25;;;;;;;99.13;83.28;;;;;;;19.85;100.00;100709.81;5063305;28;20101;-87
2023/06/26 03:36:52;;;;;;;95.82;85.85;;;;;;;19.82;100.00;100704.97;5060163;28;20131;-83
2023/06/26 03:39:20;;;;;;;100.75;90.93;;;;;;;19.75;100.00;100700.91;5065578;28;20045;-86
2023/06/26 03:42:00;;;;;;;121.20;109.32;;;;;;;19.82;100.00;100712.25;5063300;28;20132;-82
2023/06/26 03:44:27;;;;;;;127.93;114.93;;;;;;;19.70;100.00;100695.50;5056346;28;20048;-88
2023/06/26 03:46:55;;;;;;;125.03;108.40;;;;;;;20.00;100.00;100705.50;5067784;28;20051;-86
2023/06/26 03:49:25;;;;;;;124.93;104.45;;;;;;;20.14;100.00;100699.31;5053849;28;20471;-88
2023/06/26 03:51:52;;;;;;;120.07;92.88;;;;;;;20.22;100.00;100702.56;5053623;28;20056;-85
2023/06/26 03:54:20;;;;;;;98.82;81.43;;;;;;;19.98;100.00;100700.38;5057392;28;20048;-84
2023/06/26 03:56:47;;;;;;;106.13;94.47;;;;;;;20.15;100.00;100694.72;5061190;28;20459;-85
2023/06/26 03:59:14;;;;;;;104.38;93.10;;;;;;;19.90;100.00;100704.41;5061698;28;20044;-88
2023/06/26 04:01:41;;;;;;;101.28;90.07;;;;;;;20.08;100.00;100704.97;5056979;28;20049;-86
2023/06/26 04:04:10;;;;;;;100.22;85.88;;;;;;;19.99;100.00;100698.50;5053608;28;20072;-88
2023/06/26 04:06:37;;;;;;;97.53;86.82;;;;;;;20.19;100.00;100700.41;5053292;28;20119;-88
2023/06/26 04:09:04;;;;;;;96.43;84.63;;;;;;;20.29;100.00;100698.50;5053346;28;20056;-89
2023/06/26 04:11:32;;;;;;;96.47;85.95;;;;;;;20.38;100.00;100704.16;5053352;28;20053;-89
2023/06/26 04:13:59;;;;;;;95.88;80.90;;;;;;;20.34;100.00;100708.47;5053177;28;20049;-88
2023/06/26 04:16:26;;;;;;;97.90;83.78;;;;;;;20.59;100.00;100702.25;5064287;28;20054;-88
2023/06/26 04:18:56;;;;;;;94.78;84.65;;;;;;;20.47;100.00;100707.91;5063314;28;20052;-88
2023/06/26 04:21:24;;;;;;;92.43;81.15;;;;;;;20.52;100.00;100707.94;5057437;28;20505;-88
2023/06/26 04:23:51;;;;;;;90.28;79.57;;;;;;;20.65;100.00;100708.47;5057834;28;20055;-89
2023/06/26 04:26:18;;;;;;;92.35;77.90;;;;;;;20.67;100.00;100706.31;5055002;28;20064;-88
2023/06/26 04:28:46;;;;;;;92.38;82.72;;;;;;;20.69;100.00;100702.22;5057188;28;20044;-88
2023/06/26 04:31:13;;;;;;;92.18;82.32;;;;;;;20.55;100.00;100712.00;5052205;28;20135;-84
2023/06/26 04:33:40;;;;;;;96.60;86.40;;;;;;;20.61;100.00;100708.22;5052394;28;20055;-84
2023/06/26 04:36:08;;;;;;;94.10;85.05;;;;;;;20.46;100.00;100703.63;5052724;28;20041;-88
2023/06/26 04:38:35;;;;;;;94.57;82.03;;;;;;;20.60;100.00;100706.56;5061170;28;20053;-88
2023/06/26 04:41:02;;;;;;;87.57;78.28;;;;;;;20.38;100.00;100706.03;5057248;28;20049;-88
2023/06/26 04:43:36;;;;;;;92.95;83.07;;;;;;;20.75;100.00;100711.13;5052422;28;20075;-88
2023/06/26 04:46:07;;;;;;;96.10;85.72;;;;;;;20.59;100.00;100708.47;5052107;28;20045;-88
2023/06/26 04:48:34;;;;;;;97.40;86.95;;;;;;;20.32;100.00;100705.25;5051871;28;20152;-85
2023/06/26 04:51:01;;;;;;;99.85;89.25;;;;;;;20.74;100.00;100710.31;5056106;28;20052;-86
2023/06/26 04:53:28;;;;;;;96.65;86.20;;;;;;;20.81;100.00;100712.72;5070481;28;20135;-88
2023/06/26 04:55:55;;;;;;;91.90;82.82;;;;;;;20.41;100.00;100709.00;5070086;28;20053;-87
2023/06/26 04:58:29;;;;;;;95.93;86.13;;;;;;;20.66;100.00;100715.47;5052347;28;20566;-88
2023/06/26 05:00:56;;;;;;;98.60;88.50;;;;;;;21.00;100.00;100716.47;5053823;28;20056;-88
2023/06/26 05:03:24;;;;;;;105.10;94.35;;;;;;;20.87;100.00;100722.44;5058613;28;20055;-88
2023/06/26 05:05:52;;;;;;;97.68;88.03;;;;;;;21.14;100.00;100705.88;5069295;28;20052;-87
2023/06/26 05:08:24;;;;;;;92.47;82.95;;;;;;;21.13;100.00;100719.66;5070282;28;20048;-88
2023/06/26 05:10:53;;;;;;;99.05;89.22;;;;;;;21.03;100.00;100720.50;5069512;28;20051;-87
2023/06/26 05:13:22;;;;;;;98.63;88.55;;;;;;;20.53;100.00;100724.94;5062959;28;20056;-88
2023/06/26 05:15:51;;;;;;;110.07;99.70;;;;;;;21.32;100.00;100727.94;5063425;28;20076;-88
2023/06/26 05:18:19;;;;;;;110.80;99.47;;;;;;;20.61;100.00;100720.91;5051571;28;20045;-88
2023/06/26 05:20:48;;;;;;;111.80;100.47;;;;;;;20.53;100.00;100724.94;5051284;28;20167;-87
2023/06/26 05:23:17;;;;;;;115.45;103.72;;;;;;;20.35;100.00;100726.28;5055740;28;20044;-87
2023/06/26 05:25:46;;;;;;;107.93;96.68;;;;;;;20.47;100.00;100734.91;5071441;28;20054;-87
2023/06/26 05:28:16;;;;;;;113.40;101.28;;;;;;;20.30;100.00;100731.66;5070632;28;20053;-87
2023/06/26 05:30:43;;;;;;;115.13;103.80;;;;;;;20.69;100.00;100734.63;5053225;28;20045;-87
2023/06/26 05:33:18;;;;;;;116.57;104.82;;;;;;;20.64;100.00;100736.53;5051817;28;20045;-84
2023/06/26 05:35:54;;;;;;;111.43;100.55;;;;;;;21.18;100.00;100733.97;5066526;28;20098;-84
2023/06/26 05:38:22;;;;;;;115.95;104.88;;;;;;;21.07;100.00;100731.56;5067057;28;20055;-87
2023/06/26 05:40:49;;;;;;;116.78;105.65;;;;;;;21.04;100.00;100739.13;5065894;28;20056;-87
2023/06/26 05:43:26;;;;;;;113.38;101.68;;;;;;;20.99;100.00;100741.03;5050537;28;20060;-87
2023/06/26 05:45:53;;;;;;;131.70;119.13;;;;;;;21.46;100.00;100746.00;5055403;28;20049;-84
2023/06/26 05:48:20;;;;;;;121.03;109.05;;;;;;;21.01;100.00;100741.56;5053085;28;20040;-84
2023/06/26 05:50:48;;;;;;;119.90;108.60;;;;;;;21.54;100.00;100738.41;5051204;28;20436;-84
2023/06/26 05:53:16;;;;;;;115.97;104.18;;;;;;;21.78;100.00;100736.63;5051087;28;20063;-84
2023/06/26 05:55:44;;;;;;;117.22;105.57;;;;;;;21.68;100.00;100736.69;5050885;28;20049;-84
2023/06/26 05:58:15;;;;;;;111.28;100.50;;;;;;;21.60;100.00;100738.09;5050695;28;20060;-84
2023/06/26 06:00:42;;;;;;;108.60;97.82;;;;;;;21.81;100.00;100727.97;5050533;28;20504;-86
2023/06/26 06:03:10;;;;;;;104.85;94.78;;;;;;;21.50;100.00;100733.56;5049612;28;20140;-85
2023/06/26 06:05:37;;;;;;;110.53;99.80;;;;;;;21.02;100.00;100743.97;5060459;28;20128;-85
2023/06/26 06:08:05;;;;;;;112.90;101.40;;;;;;;21.77;100.00;100737.72;5067786;28;20053;-84
2023/06/26 06:10:33;;;;;;;109.75;98.95;;;;;;;21.56;100.00;100742.44;5064538;28;20048;-84
2023/06/26 06:13:00;;;;;;;110.80;99.82;;;;;;;21.94;100.00;100740.88;5061568;28;20041;-85
2023/06/26 06:15:27;;;;;;;111.35;100.30;;;;;;;21.92;100.00;100736.81;5066113;28;20138;-84
2023/06/26 06:17:54;;;;;;;118.22;106.75;;;;;;;21.47;100.00;100736.00;5064400;28;20040;-84
2023/06/26 06:20:21;;;;;;;112.25;101.65;;;;;;;21.33;100.00;100735.78;5065272;28;20132;-84
2023/06/26 06:22:48;;;;;;;120.07;107.75;;;;;;;21.63;100.00;100734.03;5063977;28;20090;-86
2023/06/26 06:25:15;;;;;;;111.85;100.53;;;;;;;21.77;100.00;100735.03;5065335;28;20045;-84
2023/06/26 06:27:43;;;;;;;114.18;102.93;;;;;;;21.28;100.00;100733.91;5054021;28;20057;-84
2023/06/26 06:30:12;;;;;;;115.35;105.28;;;;;;;21.95;100.00;100733.56;5065285;28;20040;-86
2023/06/26 06:32:41;;;;;;;123.20;112.07;;;;;;;22.82;100.00;100736.31;5062992;28;20045;-86
2023/06/26 06:35:09;;;;;;;114.97;104.35;;;;;;;22.96;100.00;100728.34;5067861;28;20048;-86
2023/06/26 06:37:37;;;;;;;100.57;92.03;;;;;;;23.17;100.00;100719.97;5064107;28;20055;-85
2023/06/26 06:40:05;;;;;;;107.82;98.57;;;;;;;23.04;100.00;100719.59;5060501;28;20402;-87
2023/06/26 06:42:33;;;;;;;95.13;86.25;;;;;;;23.13;100.00;100727.88;5065052;28;20546;-86
2023/06/26 06:45:02;;;;;;;86.05;78.40;;;;;;;23.34;100.00;100730.34;5070865;28;20448;-86
2023/06/26 06:47:29;;;;;;;69.75;63.47;;;;;;;23.53;100.00;100725.72;5065504;28;20048;-85
2023/06/26 06:49:56;;;;;;;68.93;62.95;;;;;;;23.25;100.00;100730.97;5059765;28;20060;-84
2023/06/26 06:52:23;;;;;;;68.07;62.20;;;;;;;23.75;100.00;100720.59;5063408;28;20056;-84
2023/06/26 06:54:54;;;;;;;71.80;65.03;;;;;;;23.77;100.00;100725.69;5064731;28;20451;-84
2023/06/26 06:57:21;;;;;;;74.85;67.32;;;;;;;23.86;100.00;100723.94;5062999;28;20041;-85
2023/06/26 06:59:50;;;;;;;74.38;67.80;;;;;;;24.17;100.00;100724.25;5065440;28;20051;-84
2023/06/26 07:02:19;;;;;;;69.32;63.35;;;;;;;23.94;100.00;100725.19;5060645;28;20053;-85
2023/06/26 07:04:46;;;;;;;66.25;60.67;;;;;;;24.38;100.00;100727.41;5060183;28;20061;-85
2023/06/26 07:07:14;;;;;;;36.60;33.30;;;;;;;24.42;100.00;100725.75;5063476;28;20044;-84
2023/06/26 07:09:41;;;;;;;34.40;31.08;;;;;;;24.62;100.00;100727.28;5062655;28;20077;-82
2023/06/26 07:12:08;;;;;;;35.35;32.13;;;;;;;24.85;100.00;100725.50;5062844;28;20048;-83
2023/06/26 07:14:35;;;;;;;36.78;33.15;;;;;;;24.63;100.00;100728.09;5064460;28;20041;-84
2023/06/26 07:17:02;;;;;;;35.15;32.03;;;;;;;24.59;100.00;100722.47;5060465;28;20045;-84
2023/06/26 07:19:30;;;;;;;36.33;32.83;;;;;;;24.39;100.00;100722.81;5068902;28;20049;-85
2023/06/26 07:21:57;;;;;;;39.08;35.25;;;;;;;24.87;100.00;100731.44;5058720;28;20052;-84
2023/06/26 07:24:24;;;;;;;35.65;32.28;;;;;;;25.21;100.00;100721.31;5062654;28;20040;-84
2023/06/26 07:26:51;;;;;;;35.60;32.25;;;;;;;24.99;100.00;100722.78;5062681;28;20052;-85
2023/06/26 07:29:18;;;;;;;34.10;31.00;;;;;;;25.07;100.00;100715.84;5062175;28;20049;-84
2023/06/26 07:31:45;;;;;;;39.55;35.60;;;;;;;25.61;100.00;100724.25;5057939;28;20171;-85
2023/06/26 07:34:12;;;;;;;34.15;31.15;;;;;;;25.46;100.00;100725.38;5063105;28;20049;-85
2023/06/26 07:36:40;;;;;;;34.10;31.00;;;;;;;25.64;100.00;100710.81;5061653;28;20059;-84
2023/06/26 07:39:07;;;;;;;31.02;28.35;;;;;;;25.94;100.00;100719.41;5060886;28;20484;-84
2023/06/26 07:41:34;;;;;;;30.60;27.52;;;;;;;25.21;100.00;100718.59;5066025;28;20052;-87
2023/06/26 07:44:01;;;;;;;34.50;31.40;;;;;;;25.39;100.00;100719.53;5052600;28;20053;-85
2023/06/26 07:46:28;;;;;;;32.10;29.13;;;;;;;25.71;100.00;100722.06;5060823;28;20045;-84
2023/06/26 07:48:55;;;;;;;33.65;30.48;;;;;;;25.79;100.00;100718.63;5067153;28;20045;-85
2023/06/26 07:51:22;;;;;;;34.58;31.58;;;;;;;25.83;100.00;100718.84;5064288;28;20045;-85
2023/06/26 07:53:50;;;;;;;29.65;27.15;;;;;;;26.08;100.00;100724.78;5061550;28;20044;-85
2023/06/26 07:56:17;;;;;;;27.48;24.67;;;;;;;25.78;100.00;100718.91;5062234;28;20059;-85
2023/06/26 07:58:44;;;;;;;29.55;26.40;;;;;;;25.99;100.00;100713.84;5062493;28;20053;-84
2023/06/26 08:01:11;;;;;;;27.75;25.08;;;;;;;25.89;100.00;100722.25;5054869;28;20052;-85
2023/06/26 08:03:38;;;;;;;26.42;24.00;;;;;;;25.74;100.00;100726.09;5067298;28;20048;-84
2023/06/26 08:06:05;;;;;;;27.13;24.50;;;;;;;25.97;100.00;100716.88;5062017;28;20037;-85
2023/06/26 08:08:32;;;;;;;28.80;26.25;;;;;;;26.09;100.00;100716.31;5062253;28;20052;-85
2023/06/26 08:11:00;;;;;;;28.65;25.58;;;;;;;26.30;100.00;100713.09;5060886;28;20520;-84
2023/06/26 08:13:27;;;;;;;33.65;30.20;;;;;;;27.04;100.00;100709.72;5063486;28;20068;-86
2023/06/26 08:15:54;;;;;;;28.88;26.15;;;;;;;27.27;100.00;100715.91;5055467;28;20161;-85
2023/06/26 08:18:21;;;;;;;26.15;24.02;;;;;;;26.79;100.00;100714.78;5062703;28;20079;-86
2023/06/26 08:20:48;;;;;;;26.50;24.10;;;;;;;26.85;100.00;100708.06;5060240;28;20049;-85
2023/06/26 08:23:16;;;;;;;27.13;24.42;;;;;;;26.73;100.00;100716.84;5056644;28;20092;-85
2023/06/26 08:25:43;;;;;;;24.10;22.10;;;;;;;26.66;100.00;100710.25;5063104;28;20412;-86
2023/06/26 08:28:12;;;;;;;25.23;23.10;;;;;;;26.80;100.00;100715.59;5052268;28;20055;-85
2023/06/26 08:30:38;;;;;;;24.67;22.08;;;;;;;26.30;100.00;100710.38;5059884;28;20045;-85
2023/06/26 08:33:10;;;;;;;25.35;22.83;;;;;;;26.38;100.00;100720.47;5060987;28;20090;-86
2023/06/26 08:35:37;;;;;;;24.83;22.53;;;;;;;26.56;100.00;100707.78;5063676;28;20143;-85
2023/06/26 08:38:04;;;;;;;24.55;22.15;;;;;;;26.80;100.00;100710.94;5057112;28;20313;-86
2023/06/26 08:40:31;;;;;;;24.63;22.40;;;;;;;26.99;100.00;100712.59;5055215;28;20440;-85
2023/06/26 08:42:58;;;;;;;25.30;22.90;;;;;;;27.32;100.00;100710.28;5059327;28;20139;-86
2023/06/26 08:45:28;;;;;;;24.35;22.20;;;;;;;27.01;100.00;100708.44;5057158;28;20535;-85
2023/06/26 08:47:59;;;;;;;24.00;21.90;;;;;;;26.48;100.00;100712.06;5065533;28;20060;-86
2023/06/26 08:50:31;;;;;;;25.10;22.98;;;;;;;26.17;100.00;100709.31;5065061;28;20048;-85
2023/06/26 08:53:06;;;;;;;24.63;22.73;;;;;;;26.40;100.00;100693.75;5060949;28;20063;-86
2023/06/26 08:55:36;;;;;;;22.77;20.77;;;;;;;26.24;100.00;100701.53;5061333;28;20057;-86
2023/06/26 08:58:03;;;;;;;23.15;20.95;;;;;;;26.50;100.00;100698.94;5056695;28;20075;-85
2023/06/26 09:00:32;;;;;;;23.40;21.40;;;;;;;26.85;100.00;100702.63;5063641;28;20409;-85
2023/06/26 09:03:00;;;;;;;22.35;20.50;;;;;;;27.05;100.00;100703.16;5060523;28;20059;-85
2023/06/26 09:05:28;;;;;;;23.10;21.17;;;;;;;26.94;100.00;100706.19;5064565;28;20052;-85
2023/06/26 09:07:55;;;;;;;21.20;19.55;;;;;;;26.47;100.00;100694.09;5061060;28;20504;-86
2023/06/26 09:10:22;;;;;;;22.27;20.67;;;;;;;27.27;100.00;100691.38;5061510;28;20436;-85
2023/06/26 09:12:49;;;;;;;22.48;20.58;;;;;;;26.98;100.00;100695.44;5060122;28;20127;-86
2023/06/26 09:15:17;;;;;;;22.10;20.40;;;;;;;26.42;100.00;100680.66;5055060;28;20051;-85
2023/06/26 09:17:45;;;;;;;22.13;20.17;;;;;;;26.59;100.00;100701.72;5060362;28;20122;-85
2023/06/26 09:20:14;;;;;;;23.80;21.90;;;;;;;26.35;100.00;100700.13;5051328;28;20444;-85
2023/06/26 09:22:43;;;;;;;22.58;20.80;;;;;;;26.41;100.00;100696.16;5051143;28;20520;-85
2023/06/26 09:25:11;;;;;;;23.83;22.02;;;;;;;26.47;100.00;100705.00;5050841;28;20048;-85
2023/06/26 09:27:38;;;;;;;24.90;22.73;;;;;;;25.82;100.00;100700.91;5050303;28;20048;-86
2023/06/26 09:30:07;;;;;;;24.02;21.88;;;;;;;25.90;100.00;100694.75;5052119;28;20045;-86
2023/06/26 09:32:36;;;;;;;24.30;22.27;;;;;;;25.85;100.00;100704.94;5061601;28;20512;-86
2023/06/26 09:35:05;;;;;;;24.27;22.20;;;;;;;25.51;100.00;100715.19;5051385;28;20088;-86
2023/06/26 09:37:33;;;;;;;24.00;21.88;;;;;;;25.58;100.00;100707.41;5050645;28;20138;-86
2023/06/26 09:40:00;;;;;;;24.67;22.42;;;;;;;25.52;100.00;100713.28;5061729;28;20139;-86
2023/06/26 09:42:27;;;;;;;24.40;22.40;;;;;;;25.49;100.00;100709.25;5063379;28;20063;-86
2023/06/26 09:44:54;;;;;;;23.40;21.60;;;;;;;25.67;100.00;100709.41;5056621;28;20041;-85
2023/06/26 09:47:22;;;;;;;24.50;22.45;;;;;;;25.59;100.00;100705.50;5061864;28;20499;-86
2023/06/26 09:49:50;;;;;;;26.63;23.98;;;;;;;25.75;100.00;100705.94;5061832;28;20044;-86
2023/06/26 10:05:10;;;;;;;43.80;40.05;;;;;;;24.47;100.00;100722.13;4718975;27;10001849;-84
2023/06/26 10:07:39;;;;;;;89.28;82.85;;;;;;;25.17;100.00;100728.44;5071798;27;20084;-81
2023/06/26 10:10:08;;;;;;;49.85;45.58;;;;;;;24.18;100.00;100725.88;5076356;28;20467;-84
2023/06/26 10:12:35;;;;;;;43.80;39.80;;;;;;;24.40;100.00;100717.06;5070945;28;20060;-84
2023/06/26 10:15:04;;;;;;;35.00;32.20;;;;;;;23.99;100.00;100719.66;5063650;28;20048;-84
2023/06/26 10:17:35;;;;;;;35.78;32.67;;;;;;;24.29;100.00;100715.63;5078280;28;20048;-85
2023/06/26 10:20:05;;;;;;;34.60;31.98;;;;;;;24.25;100.00;100703.78;5065672;28;20441;-84
2023/06/26 10:22:40;;;;;;;30.38;28.25;;;;;;;24.62;100.00;100707.47;5078413;28;20053;-84
2023/06/26 10:25:10;;;;;;;32.80;30.10;;;;;;;24.56;100.00;100711.41;5074976;28;20048;-85
2023/06/26 10:27:41;;;;;;;39.70;36.58;;;;;;;24.88;100.00;100724.09;5073646;28;20125;-84
2023/06/26 10:30:15;;;;;;;37.38;34.45;;;;;;;24.33;100.00;100713.94;5069241;28;20052;-84
2023/06/26 10:32:42;;;;;;;44.05;40.67;;;;;;;25.11;100.00;100711.41;5073995;28;20390;-84
2023/06/26 10:35:12;;;;;;;39.05;35.95;;;;;;;24.74;100.00;100707.78;5068462;28;20041;-84
2023/06/26 10:37:44;;;;;;;40.95;37.72;;;;;;;24.39;100.00;100707.31;5072788;28;20482;-84
2023/06/26 10:40:12;;;;;;;45.70;42.08;;;;;;;24.23;100.00;100711.41;5070699;28;20102;-84
2023/06/26 10:42:40;;;;;;;47.25;43.15;;;;;;;23.99;100.00;100714.22;5070114;28;20060;-83
2023/06/26 10:45:12;;;;;;;73.60;68.10;;;;;;;23.88;100.00;100710.09;5074671;28;20048;-84
2023/06/26 10:47:41;;;;;;;53.42;48.90;;;;;;;23.59;100.00;100702.88;5070373;28;20092;-84
2023/06/26 10:50:19;;;;;;;71.70;66.30;;;;;;;23.43;100.00;100710.44;5070237;28;20048;-84
2023/06/26 10:53:15;;;;;;;91.43;85.10;;;;;;;23.49;100.00;100709.25;5063915;28;20052;-84
2023/06/26 10:55:44;;;;;;;76.13;70.63;;;;;;;23.45;100.00;100712.81;5068058;28;20053;-83
2023/06/26 10:58:31;;;;;;;81.03;75.03;;;;;;;23.41;100.00;100704.47;5075682;28;20052;-84
2023/06/26 11:01:20;;;;;;;95.35;88.35;;;;;;;23.37;100.00;100714.31;5063078;28;20048;-81
2023/06/26 11:03:50;;;;;;;106.82;98.63;;;;;;;23.25;100.00;100725.56;5064680;28;20147;-84
2023/06/26 11:06:20;;;;;;;106.03;98.50;;;;;;;23.27;100.00;100715.25;5054433;28;20044;-83
2023/06/26 11:08:50;;;;;;;115.57;107.05;;;;;;;22.81;100.00;100726.59;5056400;28;20496;-84
2023/06/26 11:11:18;;;;;;;122.15;112.88;;;;;;;23.01;100.00;100717.47;5059490;28;20053;-83
2023/06/26 11:13:46;;;;;;;112.15;103.50;;;;;;;22.72;100.00;100720.19;5057390;28;20527;-83
2023/06/26 11:16:14;;;;;;;130.60;120.80;;;;;;;22.32;100.00;100715.97;5060101;28;20397;-83